This is the latest recevied weather packets stored in our database for station/object W1SCW. If no packets are shown the sender has not sent any weather packets the latest 10 day(s).
| Time | Temp. | Humidity | Pressure | Rain* | Wind** | Luminosity | Snow |
|---|---|---|---|---|---|---|---|
| 1777812391 | 17.22° C | 98% | 1020.7 hPa | 0 mm | - | 97 W/m² | - |
| 1777812090 | 16.11° C | 98% | 1020.6 hPa | 0 mm | - | 89 W/m² | - |
| 1777811788 | 16.67° C | 98% | 1020.5 hPa | 0 mm | - | 80 W/m² | - |
| 1777811485 | 16.11° C | 99% | 1020.4 hPa | 0 mm | - | 70 W/m² | - |
| 1777811181 | 15.56° C | 99% | 1020.4 hPa | 0 mm | - | 57 W/m² | - |
| 1777810879 | 15° C | 99% | 1020.3 hPa | 0 mm | - | 49 W/m² | - |
| 1777810575 | 13.89° C | 99% | 1020.4 hPa | 0 mm | - | 42 W/m² | - |
| 1777810272 | 12.78° C | 99% | 1020.3 hPa | 0 mm | - | 27 W/m² | - |
| 1777809967 | 12.22° C | 99% | 1020.4 hPa | 0 mm | - | 23 W/m² | - |
| 1777809666 | 11.67° C | 99% | 1020.2 hPa | 0 mm | - | 19 W/m² | - |
| 1777809363 | 11.67° C | 99% | 1020.3 hPa | 0 mm | - | 15 W/m² | - |
| 1777809061 | 11.67° C | 99% | 1020.1 hPa | 0 mm | - | 11 W/m² | - |
| 1777808758 | 11.67° C | 99% | 1020.1 hPa | 0 mm | - | 8 W/m² | - |
| 1777808454 | 11.67° C | 99% | 1020 hPa | 0 mm | - | 4 W/m² | - |
| 1777808152 | 11.67° C | 99% | 1019.8 hPa | 0 mm | - | 2 W/m² | - |
| 1777807850 | 11.67° C | 99% | 1020 hPa | 0 mm | - | 1 W/m² | - |
| 1777807549 | 11.67° C | 99% | 1019.8 hPa | 0 mm | - | 0 W/m² | - |
| 1777807244 | 11.67° C | 99% | 1019.8 hPa | 0 mm | - | 0 W/m² | - |
| 1777806941 | 11.67° C | 99% | 1019.8 hPa | 0 mm | - | 0 W/m² | - |
| 1777806637 | 11.67° C | 99% | 1019.8 hPa | 0 mm | - | 0 W/m² | - |
| 1777806333 | 12.22° C | 99% | 1019.8 hPa | 0 mm | - | 0 W/m² | - |
| 1777806031 | 12.22° C | 99% | 1019.8 hPa | 0 mm | - | 0 W/m² | - |
| 1777805726 | 12.22° C | 99% | 1019.6 hPa | 0 mm | - | 0 W/m² | - |
| 1777805425 | 12.22° C | 99% | 1019.7 hPa | 0 mm | - | 0 W/m² | - |
| 1777805123 | 11.67° C | 99% | 1019.5 hPa | 0 mm | - | 0 W/m² | - |
* Rain latest hour (hover to see other rain measurements)
** Current wind speed in m/s (hover to see current wind gust speed)